Time;durP1;ratioP1;P1;durP2;ratioP2;P2;SDS_P1;SDS_P2;PMS_P1;PMS_P2;Temp;Humidity;BMP_temperature;BMP_pressure;BME280_temperature;BME280_humidity;BME280_pressure;Samples;Min_cycle;Max_cycle;Signal;HPM_P1;HPM_P2
2021/06/15 00:02:02;;;;;;;7.22;3.28;;;20.50;61.70;;;;;;5085019;28;27466;-64
2021/06/15 00:05:04;;;;;;;7.00;3.17;;;20.50;61.90;;;;;;5085431;28;27420;-64
2021/06/15 00:07:55;;;;;;;4.28;2.25;;;20.50;61.70;;;;;;5085182;28;27439;-64
2021/06/15 00:11:07;;;;;;;3.40;2.22;;;20.40;61.90;;;;;;5085018;28;27431;-64
2021/06/15 00:13:59;;;;;;;2.60;2.30;;;20.40;61.80;;;;;;5069604;28;27361;-64
2021/06/15 00:17:06;;;;;;;3.15;2.30;;;20.40;62.10;;;;;;5085339;28;27379;-65
2021/06/15 00:20:06;;;;;;;5.22;3.42;;;20.30;62.00;;;;;;5085045;28;27403;-64
2021/06/15 00:23:22;;;;;;;2.42;2.00;;;20.30;62.20;;;;;;5082477;28;27490;-64
2021/06/15 00:26:09;;;;;;;3.03;2.47;;;20.30;62.20;;;;;;5085003;28;27422;-64
2021/06/15 00:29:07;;;;;;;7.00;2.95;;;20.30;62.30;;;;;;5084849;28;27390;-64
2021/06/15 00:32:21;;;;;;;2.90;2.42;;;20.20;62.20;;;;;;5084845;28;27335;-62
2021/06/15 00:36:13;;;;;;;4.70;2.28;;;20.20;62.30;;;;;;5083995;28;27395;-64
2021/06/15 00:39:31;;;;;;;3.65;2.58;;;20.20;62.30;;;;;;5084548;28;27466;-64
2021/06/15 00:42:46;;;;;;;2.90;2.13;;;20.10;62.10;;;;;;5084221;28;27391;-64
2021/06/15 00:45:59;;;;;;;4.22;2.55;;;20.00;62.30;;;;;;5083645;28;27390;-64
2021/06/15 00:48:50;;;;;;;5.95;2.85;;;20.00;62.40;;;;;;5084658;28;27351;-63
2021/06/15 00:51:57;;;;;;;5.53;2.78;;;20.00;62.40;;;;;;5084170;28;27482;-64
2021/06/15 00:55:09;;;;;;;4.15;2.50;;;19.90;62.30;;;;;;5083855;28;27431;-64
2021/06/15 00:58:22;;;;;;;3.40;2.10;;;19.90;62.60;;;;;;5083370;28;27312;-65
2021/06/15 01:01:23;;;;;;;4.30;2.55;;;19.80;62.60;;;;;;5083498;28;27544;-64
2021/06/15 01:04:20;;;;;;;5.13;2.33;;;19.80;62.70;;;;;;5080563;28;27413;-64
2021/06/15 01:07:50;;;;;;;4.90;2.33;;;19.70;62.50;;;;;;5080172;28;27366;-64
2021/06/15 01:10:57;;;;;;;4.63;2.60;;;19.70;62.80;;;;;;5082966;28;27486;-63
2021/06/15 01:14:37;;;;;;;2.50;2.30;;;19.60;62.70;;;;;;5080004;28;27486;-64
2021/06/15 01:17:54;;;;;;;3.28;2.42;;;19.60;62.90;;;;;;5083751;28;27439;-63
2021/06/15 01:21:04;;;;;;;2.38;2.13;;;19.60;62.80;;;;;;5079912;28;27421;-64
2021/06/15 01:23:53;;;;;;;3.03;2.72;;;19.50;63.00;;;;;;5084134;28;27423;-63
2021/06/15 01:27:05;;;;;;;3.15;2.22;;;19.50;62.90;;;;;;5080872;28;27425;-64
2021/06/15 01:30:12;;;;;;;4.00;2.88;;;19.50;63.10;;;;;;5083882;28;27386;-65
2021/06/15 01:33:13;;;;;;;2.45;2.25;;;19.40;63.20;;;;;;5083325;28;27343;-64
2021/06/15 01:36:19;;;;;;;4.30;2.63;;;19.40;63.50;;;;;;5079732;28;27387;-64
2021/06/15 01:39:47;;;;;;;5.25;2.53;;;19.40;63.30;;;;;;5082956;28;27372;-65
2021/06/15 01:42:35;;;;;;;5.97;2.50;;;19.40;63.50;;;;;;5081136;28;28618;-64
2021/06/15 01:45:51;;;;;;;2.65;2.40;;;19.30;63.50;;;;;;5083549;28;27590;-64
2021/06/15 01:49:13;;;;;;;4.78;2.83;;;19.30;63.50;;;;;;5097231;28;27467;-64
2021/06/15 01:52:22;;;;;;;6.22;2.83;;;19.30;63.40;;;;;;5079676;28;27486;-64
2021/06/15 01:55:35;;;;;;;5.57;2.83;;;19.20;63.50;;;;;;5096557;28;27929;-64
2021/06/15 01:58:42;;;;;;;4.38;2.38;;;19.20;63.50;;;;;;5083671;28;27488;-64
2021/06/15 02:01:57;;;;;;;5.72;2.65;;;19.20;63.50;;;;;;5111617;27;27471;-64
2021/06/15 02:04:57;;;;;;;6.38;3.30;;;19.10;63.50;;;;;;5082686;28;27393;-64
2021/06/15 02:08:05;;;;;;;2.88;2.50;;;19.10;63.50;;;;;;5079806;28;27328;-64
2021/06/15 02:11:12;;;;;;;4.35;2.22;;;19.00;63.50;;;;;;5081812;28;27598;-64
2021/06/15 02:14:53;;;;;;;3.05;2.47;;;19.00;63.50;;;;;;5080060;28;27434;-64
2021/06/15 02:18:18;;;;;;;4.18;2.70;;;19.00;63.50;;;;;;5079712;28;27443;-65
2021/06/15 02:21:30;;;;;;;6.43;2.45;;;18.90;63.40;;;;;;5083182;28;27927;-64
2021/06/15 02:24:31;;;;;;;2.47;2.25;;;18.90;63.50;;;;;;5060702;28;27531;-64
2021/06/15 02:27:45;;;;;;;2.60;2.40;;;18.80;63.60;;;;;;5044589;28;27438;-64
2021/06/15 02:31:03;;;;;;;2.88;2.45;;;18.80;63.70;;;;;;5060550;28;27694;-65
2021/06/15 02:34:13;;;;;;;4.20;2.30;;;18.80;63.90;;;;;;5060617;28;27441;-64
2021/06/15 02:37:19;;;;;;;5.35;2.78;;;18.70;63.70;;;;;;5058213;28;27435;-64
2021/06/15 02:40:31;;;;;;;4.35;2.65;;;18.70;63.80;;;;;;5044083;28;27503;-66
2021/06/15 02:43:40;;;;;;;5.13;2.50;;;18.70;63.80;;;;;;5046408;28;27685;-63
2021/06/15 02:46:33;;;;;;;5.53;2.60;;;18.60;63.80;;;;;;5062055;28;27609;-64
2021/06/15 02:49:48;;;;;;;4.05;2.97;;;18.60;64.00;;;;;;5064757;28;27467;-64
2021/06/15 02:53:06;;;;;;;4.20;2.95;;;18.60;64.00;;;;;;5049233;28;27467;-64
2021/06/15 02:56:27;;;;;;;4.35;2.65;;;18.50;64.20;;;;;;5081203;28;27438;-64
2021/06/15 03:00:17;;;;;;;5.55;2.88;;;18.50;64.20;;;;;;5085401;28;27340;-64
2021/06/15 03:03:25;;;;;;;2.92;2.63;;;18.50;64.20;;;;;;5084145;28;27426;-64
2021/06/15 03:06:27;;;;;;;3.95;2.53;;;18.40;64.40;;;;;;5113799;27;27352;-64
2021/06/15 03:09:36;;;;;;;4.85;2.90;;;18.40;64.20;;;;;;5084505;28;27447;-64
2021/06/15 03:12:34;;;;;;;3.65;2.50;;;18.40;64.20;;;;;;5067553;28;27384;-65
2021/06/15 03:15:54;;;;;;;3.35;2.80;;;18.30;64.20;;;;;;5083072;28;27457;-64
2021/06/15 03:19:28;;;;;;;4.45;3.35;;;18.30;64.30;;;;;;5083148;28;27420;-65
2021/06/15 03:22:54;;;;;;;5.60;2.90;;;18.30;64.30;;;;;;5084966;28;27664;-63
2021/06/15 03:26:01;;;;;;;5.03;3.10;;;18.30;64.50;;;;;;5086168;28;27344;-64
2021/06/15 03:29:10;;;;;;;6.05;2.88;;;18.20;64.50;;;;;;5113936;27;27406;-64
2021/06/15 03:32:37;;;;;;;3.22;2.72;;;18.20;64.70;;;;;;5096481;28;27339;-64
2021/06/15 03:36:09;;;;;;;4.75;2.72;;;18.20;64.80;;;;;;5083692;28;27422;-63
2021/06/15 03:40:00;;;;;;;5.10;3.22;;;18.10;64.80;;;;;;5085091;28;27443;-65
2021/06/15 03:43:28;;;;;;;6.15;3.45;;;18.10;64.90;;;;;;5083578;28;27406;-63
2021/06/15 03:47:05;;;;;;;5.07;2.47;;;18.10;64.90;;;;;;5085941;28;27408;-64
2021/06/15 03:50:32;;;;;;;5.30;2.90;;;18.10;65.00;;;;;;5084613;28;27428;-64
2021/06/15 03:53:48;;;;;;;6.82;2.63;;;18.10;65.30;;;;;;5085408;28;27325;-64
2021/06/15 03:57:00;;;;;;;4.90;3.00;;;18.00;65.20;;;;;;5082945;28;27470;-64
2021/06/15 04:00:06;;;;;;;6.68;3.00;;;18.00;65.30;;;;;;5085125;28;27418;-64
2021/06/15 04:03:18;;;;;;;3.90;2.75;;;18.00;65.30;;;;;;5097652;28;27411;-64
2021/06/15 04:06:49;;;;;;;4.55;2.60;;;18.00;65.20;;;;;;5083349;28;27837;-64
2021/06/15 04:10:15;;;;;;;4.82;2.60;;;18.00;65.20;;;;;;5084867;28;27387;-65
2021/06/15 04:13:28;;;;;;;5.47;2.70;;;17.90;65.30;;;;;;5084746;28;27380;-64
2021/06/15 04:16:41;;;;;;;5.55;2.75;;;17.90;65.40;;;;;;5083350;28;27385;-65
2021/06/15 04:19:57;;;;;;;7.55;3.22;;;17.90;65.60;;;;;;5085011;28;27848;-65
2021/06/15 04:22:52;;;;;;;4.78;3.20;;;17.90;65.90;;;;;;5099003;27;27512;-65
2021/06/15 04:25:50;;;;;;;3.65;2.30;;;17.90;65.90;;;;;;5085159;28;27470;-65
2021/06/15 04:33:07;;;;;;;4.72;3.17;;;17.90;66.00;;;;;;5084102;28;27361;-65
2021/06/15 04:35:53;;;;;;;3.70;2.83;;;17.90;66.10;;;;;;5084044;28;27439;-65
2021/06/15 04:38:52;;;;;;;7.10;3.03;;;17.80;66.20;;;;;;5085137;28;27448;-63
2021/06/15 04:41:39;;;;;;;5.03;2.40;;;17.90;66.50;;;;;;5083395;28;27497;-63
2021/06/15 04:44:35;;;;;;;5.13;2.72;;;17.90;66.60;;;;;;5083845;28;27333;-63
2021/06/15 04:47:26;;;;;;;5.97;3.10;;;17.90;66.70;;;;;;5084890;28;27483;-63
2021/06/15 04:50:14;;;;;;;7.28;2.80;;;17.80;66.80;;;;;;5084599;28;27387;-63
2021/06/15 04:52:59;;;;;;;4.47;3.10;;;17.90;66.70;;;;;;5084798;28;27331;-63
2021/06/15 04:55:44;;;;;;;2.95;2.65;;;17.90;67.00;;;;;;5081084;28;27401;-66
2021/06/15 04:58:30;;;;;;;3.65;3.35;;;17.80;67.10;;;;;;5085067;28;27391;-65
2021/06/15 05:01:15;;;;;;;5.25;4.25;;;17.90;67.30;;;;;;5084775;28;27435;-66
2021/06/15 05:04:00;;;;;;;5.68;3.13;;;17.90;67.50;;;;;;5081066;28;27471;-63
2021/06/15 05:06:44;;;;;;;3.67;3.33;;;17.90;67.70;;;;;;5084668;28;28032;-63
2021/06/15 05:09:29;;;;;;;4.55;3.67;;;18.00;67.80;;;;;;5068744;28;27384;-63
2021/06/15 05:12:14;;;;;;;6.75;3.75;;;18.00;67.90;;;;;;5084181;28;27451;-63
2021/06/15 05:15:03;;;;;;;3.42;2.80;;;18.00;67.90;;;;;;5083974;28;27450;-66
2021/06/15 05:17:49;;;;;;;4.43;3.25;;;18.00;68.10;;;;;;5083775;28;27490;-66
2021/06/15 05:20:34;;;;;;;5.85;3.63;;;18.10;68.10;;;;;;5098204;27;27497;-66
2021/06/15 05:23:40;;;;;;;8.57;3.42;;;18.10;68.30;;;;;;5083783;28;27461;-66
2021/06/15 05:26:25;;;;;;;4.35;3.47;;;18.10;68.30;;;;;;5083751;28;27352;-66
2021/06/15 05:29:10;;;;;;;6.78;3.45;;;18.10;68.40;;;;;;5083888;28;27919;-66
2021/06/15 05:31:55;;;;;;;6.07;3.88;;;18.10;68.50;;;;;;5083594;28;27371;-66
2021/06/15 05:34:40;;;;;;;6.32;3.53;;;18.10;68.70;;;;;;5069297;28;27390;-66
2021/06/15 05:37:25;;;;;;;3.40;3.00;;;18.20;69.00;;;;;;5084293;28;27379;-67
2021/06/15 05:40:12;;;;;;;3.92;3.47;;;18.20;69.20;;;;;;5069539;28;27324;-66
2021/06/15 05:42:56;;;;;;;5.07;3.63;;;18.30;69.30;;;;;;5083402;28;27403;-66
2021/06/15 05:45:41;;;;;;;5.32;3.85;;;18.30;69.50;;;;;;5080478;28;27328;-66
2021/06/15 05:48:25;;;;;;;5.55;4.00;;;18.40;69.70;;;;;;5080104;28;27423;-66
2021/06/15 05:51:10;;;;;;;6.70;3.88;;;18.60;69.60;;;;;;5083473;28;27360;-64
2021/06/15 05:53:55;;;;;;;5.03;4.20;;;18.80;69.30;;;;;;5084328;28;27375;-64
2021/06/15 05:56:39;;;;;;;9.35;4.00;;;19.00;68.30;;;;;;5083548;28;27363;-68
2021/06/15 05:59:24;;;;;;;4.65;4.15;;;19.30;68.10;;;;;;5084259;28;27382;-65
2021/06/15 06:02:09;;;;;;;5.93;4.65;;;19.50;68.30;;;;;;5084062;28;27848;-65
2021/06/15 06:10:47;;;;;;;7.68;3.85;;;20.20;68.50;;;;;;5095487;27;27343;-66
2021/06/15 06:13:33;;;;;;;6.97;4.63;;;20.40;68.90;;;;;;5083769;28;27952;-66
2021/06/15 06:16:18;;;;;;;7.57;4.50;;;20.70;67.90;;;;;;5069182;28;27404;-66
2021/06/15 06:19:04;;;;;;;4.75;3.80;;;20.90;67.10;;;;;;5083467;28;27332;-67
2021/06/15 06:21:48;;;;;;;8.15;3.92;;;21.10;66.60;;;;;;5086446;28;27403;-68
2021/06/15 06:24:33;;;;;;;9.27;4.10;;;21.30;66.60;;;;;;5086531;28;27833;-67
2021/06/15 06:27:17;;;;;;;5.93;4.10;;;21.50;65.70;;;;;;5086726;28;27321;-67
2021/06/15 06:30:02;;;;;;;7.15;4.10;;;21.70;65.80;;;;;;5087515;28;27363;-67
2021/06/15 06:32:47;;;;;;;6.43;3.88;;;21.90;65.30;;;;;;5087163;28;27325;-67
2021/06/15 06:35:32;;;;;;;4.13;3.50;;;22.10;65.70;;;;;;5069099;28;27870;-68
2021/06/15 06:38:17;;;;;;;4.57;3.90;;;22.30;64.80;;;;;;5072110;28;27342;-67
2021/06/15 06:41:01;;;;;;;7.57;3.90;;;22.50;65.40;;;;;;5086553;28;26890;-69
2021/06/15 06:43:47;;;;;;;7.55;3.80;;;22.60;64.80;;;;;;5086036;28;27361;-67
2021/06/15 06:46:33;;;;;;;8.68;4.13;;;22.80;64.90;;;;;;5086454;28;27976;-67
2021/06/15 06:49:18;;;;;;;7.82;4.03;;;23.00;65.00;;;;;;5087123;28;27386;-68
2021/06/15 06:52:03;;;;;;;4.03;3.38;;;23.20;65.20;;;;;;5100525;27;27359;-68
2021/06/15 06:54:47;;;;;;;5.97;3.75;;;23.30;65.00;;;;;;5086086;28;27344;-68
2021/06/15 06:57:32;;;;;;;6.50;3.30;;;23.50;65.60;;;;;;5082747;28;27422;-68
2021/06/15 07:00:18;;;;;;;6.10;3.53;;;23.60;63.80;;;;;;5086219;28;27458;-68
2021/06/15 07:03:02;;;;;;;9.18;4.18;;;23.80;64.00;;;;;;5086759;28;27404;-68
2021/06/15 07:05:47;;;;;;;8.88;4.32;;;24.00;64.90;;;;;;5086648;28;27398;-74
2021/06/15 07:08:32;;;;;;;5.97;3.40;;;24.10;64.20;;;;;;5086039;28;27336;-68
2021/06/15 07:11:17;;;;;;;7.32;3.97;;;24.30;64.00;;;;;;5086312;28;27398;-68
2021/06/15 07:14:01;;;;;;;5.63;3.58;;;24.50;63.90;;;;;;5086886;28;26936;-68
2021/06/15 07:16:46;;;;;;;5.93;3.40;;;24.60;63.70;;;;;;5068125;28;27455;-68
2021/06/15 07:19:30;;;;;;;7.57;3.72;;;24.80;63.50;;;;;;5085606;28;27345;-69
2021/06/15 07:22:16;;;;;;;11.02;3.97;;;25.00;62.80;;;;;;5082190;28;27314;-70
2021/06/15 07:25:02;;;;;;;5.35;3.40;;;25.20;62.30;;;;;;5086658;28;27393;-69
2021/06/15 07:27:47;;;;;;;9.27;3.63;;;25.30;62.10;;;;;;5086301;28;27333;-69
2021/06/15 07:30:32;;;;;;;8.38;3.38;;;25.50;62.40;;;;;;5086518;28;27463;-69
2021/06/15 07:33:18;;;;;;;8.60;3.33;;;25.70;62.00;;;;;;5099020;27;27490;-70
2021/06/15 07:36:03;;;;;;;4.72;3.08;;;25.80;61.60;;;;;;5085506;28;27360;-69
2021/06/15 07:38:50;;;;;;;8.32;3.58;;;26.00;61.70;;;;;;5113999;27;27424;-69
2021/06/15 07:41:35;;;;;;;5.53;3.33;;;26.20;62.10;;;;;;5085742;28;27953;-69
2021/06/15 07:44:20;;;;;;;8.90;3.92;;;26.40;62.20;;;;;;5085354;28;27415;-69
2021/06/15 07:47:05;;;;;;;9.73;3.70;;;26.60;61.00;;;;;;5085551;28;27458;-69
2021/06/15 07:49:50;;;;;;;7.47;3.33;;;26.80;60.80;;;;;;5085187;28;27487;-69
2021/06/15 07:52:34;;;;;;;6.88;3.85;;;27.00;60.70;;;;;;5085417;28;27376;-69
2021/06/15 07:55:19;;;;;;;6.10;3.05;;;27.20;59.80;;;;;;5085100;28;27516;-70
2021/06/15 07:58:05;;;;;;;9.00;2.92;;;27.30;59.50;;;;;;5085891;28;27388;-69
2021/06/15 08:00:50;;;;;;;7.13;3.58;;;27.50;59.30;;;;;;5086061;28;27312;-70
2021/06/15 08:03:35;;;;;;;8.10;3.22;;;27.70;58.60;;;;;;5085723;28;27465;-70
2021/06/15 08:06:20;;;;;;;4.53;3.25;;;27.90;58.80;;;;;;5085214;28;27423;-71
2021/06/15 08:09:12;;;;;;;6.53;3.00;;;28.10;58.90;;;;;;5086016;28;27464;-70
2021/06/15 08:11:57;;;;;;;5.68;3.05;;;28.30;59.00;;;;;;5081935;28;27360;-70
2021/06/15 08:14:41;;;;;;;8.23;3.13;;;28.40;57.80;;;;;;5085819;28;27367;-70
2021/06/15 08:17:27;;;;;;;6.85;3.28;;;28.60;57.00;;;;;;5084811;28;27408;-70
2021/06/15 08:20:12;;;;;;;4.60;3.03;;;28.70;57.30;;;;;;5085788;28;27340;-70
2021/06/15 08:22:59;;;;;;;5.18;2.72;;;28.90;57.90;;;;;;5084831;28;27384;-69
2021/06/15 08:25:44;;;;;;;7.93;2.85;;;29.10;57.60;;;;;;5081332;28;27323;-70
2021/06/15 08:28:29;;;;;;;6.13;3.25;;;29.30;57.40;;;;;;5085553;28;27383;-70
2021/06/15 08:31:14;;;;;;;5.57;2.90;;;29.40;57.10;;;;;;5084597;28;27395;-70
2021/06/15 08:33:59;;;;;;;4.32;3.00;;;29.60;56.80;;;;;;5083400;28;27352;-71
2021/06/15 08:36:44;;;;;;;3.38;2.40;;;29.70;56.50;;;;;;5081462;28;27375;-71
2021/06/15 08:39:29;;;;;;;5.70;2.47;;;29.70;56.90;;;;;;5084384;28;27379;-70
2021/06/15 08:42:15;;;;;;;6.32;3.30;;;29.80;56.30;;;;;;5098009;27;27364;-76
2021/06/15 08:44:59;;;;;;;15.55;3.45;;;29.80;55.70;;;;;;5084391;28;27316;-72
2021/06/15 08:47:46;;;;;;;6.68;2.70;;;29.80;44.40;;;;;;5080993;28;27383;-69
2021/06/15 08:50:32;;;;;;;12.45;2.58;;;29.80;45.60;;;;;;5084281;28;27494;-69
2021/06/15 09:01:27;;;;;;;5.10;2.28;;;30.30;48.00;;;;;;5029000;28;27840;-70
2021/06/15 09:08:12;;;;;;;8.23;2.15;;;30.70;50.90;;;;;;5003175;28;27522;-76
2021/06/15 09:11:08;;;;;;;3.13;2.08;;;30.80;51.30;;;;;;5002982;28;27421;-70
2021/06/15 09:14:35;;;;;;;2.90;1.90;;;31.00;52.50;;;;;;5003454;28;27478;-68
2021/06/15 09:17:52;;;;;;;4.53;2.33;;;31.20;52.70;;;;;;5002776;28;27537;-68
2021/06/15 09:21:20;;;;;;;2.53;2.08;;;31.40;52.70;;;;;;5002802;28;27517;-67
2021/06/15 09:25:13;;;;;;;6.30;2.70;;;31.60;54.00;;;;;;5002661;28;27475;-67
2021/06/15 09:28:39;;;;;;;6.85;3.80;;;31.80;53.20;;;;;;5002396;28;27516;-66
2021/06/15 09:31:50;;;;;;;3.78;2.20;;;32.00;53.60;;;;;;4992990;28;27538;-67
2021/06/15 09:35:00;;;;;;;7.18;2.42;;;32.10;53.90;;;;;;5022528;28;27571;-66
2021/06/15 09:37:55;;;;;;;3.53;2.30;;;32.10;54.40;;;;;;5050489;28;27643;-67
2021/06/15 09:41:39;;;;;;;3.42;2.50;;;32.20;53.70;;;;;;5083738;28;27841;-67
2021/06/15 09:45:02;;;;;;;3.60;2.20;;;32.30;54.00;;;;;;5083519;28;27420;-66
2021/06/15 09:48:18;;;;;;;4.93;2.33;;;32.40;53.90;;;;;;5084482;28;27462;-67
2021/06/15 09:51:29;;;;;;;2.30;2.10;;;32.30;53.80;;;;;;5084455;28;27419;-68
2021/06/15 09:54:36;;;;;;;3.05;2.10;;;32.30;54.90;;;;;;5082908;28;27382;-71
2021/06/15 09:57:27;;;;;;;3.78;2.45;;;32.40;55.00;;;;;;5090871;28;27474;-68
2021/06/15 10:00:34;;;;;;;4.43;2.05;;;32.60;56.50;;;;;;5091093;28;27467;-67
2021/06/15 10:03:47;;;;;;;6.63;2.33;;;32.70;55.10;;;;;;5090164;28;27759;-68
2021/06/15 10:06:47;;;;;;;4.10;2.00;;;32.90;56.00;;;;;;5090581;28;27489;-69
2021/06/15 10:09:37;;;;;;;4.22;2.00;;;33.10;56.30;;;;;;5090605;28;27419;-70
2021/06/15 10:12:43;;;;;;;5.78;2.35;;;33.20;55.10;;;;;;5090203;28;27375;-69
2021/06/15 10:15:46;;;;;;;4.28;2.38;;;33.30;53.50;;;;;;5090374;28;27373;-70
2021/06/15 10:18:37;;;;;;;4.28;2.22;;;33.20;50.10;;;;;;5090080;28;27413;-70
2021/06/15 10:21:43;;;;;;;4.20;2.08;;;33.20;53.00;;;;;;5086477;28;27467;-70
2021/06/15 10:24:35;;;;;;;2.88;2.22;;;33.20;51.70;;;;;;5090191;28;27024;-70
2021/06/15 10:27:49;;;;;;;6.40;2.58;;;33.20;53.20;;;;;;5090775;28;27455;-71
2021/06/15 10:31:26;;;;;;;3.78;2.30;;;33.20;49.40;;;;;;5087305;28;27322;-69
2021/06/15 10:34:45;;;;;;;5.70;2.25;;;33.10;52.40;;;;;;5072582;28;27463;-69
2021/06/15 10:37:40;;;;;;;5.00;2.40;;;33.10;51.70;;;;;;5089906;28;27341;-70
2021/06/15 10:40:48;;;;;;;6.43;2.80;;;33.00;54.60;;;;;;5086292;28;27435;-70
2021/06/15 10:43:45;;;;;;;5.30;2.45;;;33.00;54.70;;;;;;5089143;28;27614;-71
2021/06/15 10:46:54;;;;;;;3.83;2.65;;;33.00;53.80;;;;;;5090449;28;27493;-70
2021/06/15 10:50:00;;;;;;;4.30;2.42;;;33.10;57.20;;;;;;5118294;27;27493;-69
2021/06/15 10:53:19;;;;;;;4.95;2.22;;;33.20;57.90;;;;;;5086907;28;27328;-71
2021/06/15 10:56:08;;;;;;;3.08;2.30;;;33.30;55.30;;;;;;5090240;28;27809;-70
2021/06/15 10:59:03;;;;;;;3.35;2.10;;;33.40;51.60;;;;;;5090016;28;27458;-72
2021/06/15 11:01:48;;;;;;;3.75;2.58;;;33.40;51.40;;;;;;5089236;28;27424;-70
2021/06/15 11:04:37;;;;;;;5.40;2.50;;;33.30;47.70;;;;;;5089733;28;27426;-70
2021/06/15 11:07:34;;;;;;;3.00;2.25;;;33.30;50.80;;;;;;5088102;28;27438;-70
2021/06/15 11:10:43;;;;;;;4.32;2.35;;;33.30;53.10;;;;;;5085852;28;27387;-83
2021/06/15 11:13:47;;;;;;;4.40;2.28;;;33.30;54.00;;;;;;5086976;28;27424;-69
2021/06/15 11:16:35;;;;;;;8.13;2.55;;;33.50;56.40;;;;;;5086581;28;27404;-69
2021/06/15 11:19:22;;;;;;;3.80;2.50;;;33.50;52.60;;;;;;5085027;28;27707;-71
2021/06/15 11:22:07;;;;;;;5.63;2.30;;;33.60;55.10;;;;;;5086475;28;27385;-69
2021/06/15 11:24:59;;;;;;;5.47;2.30;;;33.60;55.40;;;;;;5086743;28;27336;-69
2021/06/15 11:27:44;;;;;;;3.22;2.10;;;33.60;56.60;;;;;;5086610;28;27392;-69
2021/06/15 11:30:30;;;;;;;2.63;2.20;;;33.80;58.50;;;;;;5085741;28;27425;-71
2021/06/15 11:33:14;;;;;;;3.88;2.55;;;34.00;59.10;;;;;;5071304;28;27524;-70
2021/06/15 11:35:59;;;;;;;4.65;2.30;;;34.30;57.30;;;;;;5114762;27;27411;-70
2021/06/15 11:39:13;;;;;;;5.47;2.30;;;34.50;57.30;;;;;;5086407;28;27392;-70
2021/06/15 11:42:07;;;;;;;2.95;2.35;;;34.70;53.90;;;;;;5085745;28;27463;-70
2021/06/15 11:45:14;;;;;;;4.22;2.90;;;34.80;49.80;;;;;;5086015;28;27534;-68
2021/06/15 11:48:34;;;;;;;12.05;3.20;;;34.70;39.10;;;;;;5086356;28;27505;-69
2021/06/15 11:51:26;;;;;;;12.35;3.63;;;34.40;36.50;;;;;;5085588;28;26924;-73
2021/06/15 11:54:10;;;;;;;8.35;3.20;;;34.10;39.70;;;;;;5085417;28;27996;-73
2021/06/15 11:56:54;;;;;;;4.75;3.10;;;34.10;48.10;;;;;;5099612;27;27407;-74
2021/06/15 11:59:41;;;;;;;7.13;2.83;;;34.10;49.20;;;;;;5086139;28;27458;-73
2021/06/15 12:03:07;;;;;;;9.02;2.80;;;34.10;50.40;;;;;;5084911;28;27407;-74
2021/06/15 12:05:57;;;;;;;4.45;3.00;;;34.10;52.00;;;;;;5085422;28;27852;-74
2021/06/15 12:08:43;;;;;;;5.97;2.75;;;34.10;53.10;;;;;;5085884;28;27403;-74
2021/06/15 12:11:28;;;;;;;5.68;2.92;;;34.20;52.60;;;;;;5085357;28;27413;-74
2021/06/15 12:14:12;;;;;;;5.03;2.70;;;34.30;51.40;;;;;;5067357;28;27492;-74
2021/06/15 12:17:01;;;;;;;4.88;2.53;;;34.30;51.70;;;;;;5085039;28;27849;-74
2021/06/15 12:19:46;;;;;;;3.33;2.58;;;34.40;52.50;;;;;;5084135;28;27414;-74
2021/06/15 12:22:30;;;;;;;5.13;2.40;;;34.50;50.80;;;;;;5084780;28;27415;-74
2021/06/15 12:25:15;;;;;;;4.72;2.80;;;34.50;49.80;;;;;;5085755;28;27392;-74
2021/06/15 12:28:13;;;;;;;4.65;2.53;;;34.30;50.10;;;;;;5085287;28;27416;-73
2021/06/15 12:31:06;;;;;;;5.25;2.40;;;34.10;52.00;;;;;;5085342;28;27378;-73
2021/06/15 12:33:55;;;;;;;3.88;2.63;;;34.00;51.90;;;;;;5085666;28;26907;-73
2021/06/15 12:36:50;;;;;;;3.47;2.40;;;33.80;52.70;;;;;;5084734;28;27405;-73
2021/06/15 12:39:36;;;;;;;7.20;2.47;;;33.70;53.80;;;;;;5084564;28;27455;-73
2021/06/15 12:42:20;;;;;;;6.95;2.50;;;33.60;53.30;;;;;;5098249;27;27475;-73
2021/06/15 12:45:05;;;;;;;5.05;2.67;;;33.50;54.10;;;;;;5085529;28;27330;-73
2021/06/15 12:47:50;;;;;;;8.77;2.40;;;33.50;53.70;;;;;;5084315;28;27537;-73
2021/06/15 12:50:34;;;;;;;6.43;2.35;;;33.40;54.50;;;;;;5086003;28;27376;-74
2021/06/15 12:53:26;;;;;;;2.63;2.28;;;33.40;54.90;;;;;;5085280;28;27356;-72
2021/06/15 12:56:31;;;;;;;3.67;2.50;;;33.50;55.10;;;;;;5070250;28;27356;-74
2021/06/15 12:59:16;;;;;;;2.47;2.25;;;33.60;55.40;;;;;;5084882;28;27363;-74
2021/06/15 13:02:17;;;;;;;4.22;2.40;;;33.70;53.50;;;;;;5084690;28;27337;-74
2021/06/15 13:05:04;;;;;;;10.48;2.88;;;33.70;55.40;;;;;;5084738;28;27514;-73
2021/06/15 13:07:55;;;;;;;4.97;2.45;;;33.70;53.20;;;;;;5084377;28;27400;-73
2021/06/15 13:10:40;;;;;;;7.95;3.00;;;33.70;52.50;;;;;;5098844;27;27425;-71
2021/06/15 13:13:24;;;;;;;7.45;3.08;;;33.70;47.20;;;;;;5084082;28;27447;-71
2021/06/15 13:16:13;;;;;;;5.47;2.50;;;33.50;38.30;;;;;;5084158;28;27332;-75
2021/06/15 13:19:13;;;;;;;6.90;2.40;;;33.40;37.10;;;;;;5084013;28;27408;-71
2021/06/15 13:21:58;;;;;;;4.00;2.90;;;33.20;35.60;;;;;;5083974;28;27378;-71
2021/06/15 13:24:43;;;;;;;5.53;2.80;;;33.20;36.10;;;;;;5084431;28;27934;-71
2021/06/15 13:27:39;;;;;;;5.57;3.20;;;33.20;37.20;;;;;;5083930;28;27333;-68
2021/06/15 13:30:32;;;;;;;3.53;2.70;;;33.10;37.70;;;;;;5096441;27;27447;-67
2021/06/15 13:33:23;;;;;;;3.80;2.50;;;33.10;37.30;;;;;;5083672;28;27334;-69
2021/06/15 13:36:08;;;;;;;4.97;2.85;;;33.00;36.40;;;;;;5097608;28;27484;-69
2021/06/15 13:43:26;;;;;;;8.80;2.67;;;33.00;35.80;;;;;;5070480;28;27664;-67
2021/06/15 13:46:51;;;;;;;6.28;2.25;;;32.90;34.60;;;;;;5082940;28;27586;-68
2021/06/15 13:49:59;;;;;;;3.92;2.17;;;32.90;36.10;;;;;;5082258;28;27466;-69
2021/06/15 13:56:49;;;;;;;7.60;2.50;;;32.70;37.70;;;;;;5079556;28;27455;-73
2021/06/15 13:59:34;;;;;;;4.43;2.50;;;32.60;36.50;;;;;;5067903;28;27506;-67
2021/06/15 14:02:19;;;;;;;7.10;2.58;;;32.60;36.40;;;;;;5065642;28;27690;-66
2021/06/15 14:05:04;;;;;;;3.83;2.78;;;32.50;35.90;;;;;;5082006;28;27501;-67
2021/06/15 14:07:49;;;;;;;5.80;2.80;;;32.50;35.10;;;;;;5068115;28;27529;-66
2021/06/15 14:10:36;;;;;;;3.42;2.30;;;32.50;35.80;;;;;;5082489;28;27528;-66
2021/06/15 14:13:21;;;;;;;7.25;3.60;;;32.50;35.10;;;;;;5067879;28;27356;-66
2021/06/15 14:16:06;;;;;;;6.57;2.42;;;32.50;35.30;;;;;;5068266;28;27414;-66
2021/06/15 14:18:51;;;;;;;8.75;2.63;;;32.50;36.00;;;;;;5072962;28;27360;-67
2021/06/15 14:21:38;;;;;;;13.75;3.05;;;32.40;37.30;;;;;;5083753;28;27471;-66
2021/06/15 14:24:23;;;;;;;5.47;2.47;;;32.40;36.20;;;;;;5083133;28;27382;-73
2021/06/15 14:27:08;;;;;;;6.07;2.40;;;32.40;37.00;;;;;;5082927;28;27371;-67
2021/06/15 14:29:54;;;;;;;3.38;2.22;;;32.30;36.60;;;;;;5067601;28;27411;-67
2021/06/15 14:32:38;;;;;;;4.65;2.60;;;32.30;36.00;;;;;;5083824;28;27387;-70
2021/06/15 14:39:41;;;;;;;4.28;2.25;;;32.20;34.50;;;;;;5081020;28;27385;-76
2021/06/15 14:43:13;;;;;;;6.00;2.20;;;32.20;34.40;;;;;;5074335;28;27534;-71
2021/06/15 14:46:05;;;;;;;4.03;2.47;;;32.10;34.40;;;;;;5086039;28;27420;-67
2021/06/15 14:48:58;;;;;;;8.13;2.50;;;32.10;33.20;;;;;;5086364;28;27399;-67
2021/06/15 14:51:51;;;;;;;7.35;2.28;;;32.00;35.50;;;;;;5072887;28;27463;-66
2021/06/15 14:54:48;;;;;;;4.57;2.05;;;31.90;34.30;;;;;;5086047;28;27436;-72
2021/06/15 14:57:41;;;;;;;4.25;1.88;;;31.90;33.60;;;;;;5085806;28;27578;-66
2021/06/15 15:00:48;;;;;;;7.55;3.22;;;31.90;34.80;;;;;;5086007;28;27427;-72
2021/06/15 15:03:45;;;;;;;5.82;2.30;;;31.80;35.80;;;;;;5086001;28;27469;-68
2021/06/15 15:06:39;;;;;;;3.30;2.13;;;31.80;36.20;;;;;;5086005;28;27418;-70
2021/06/15 15:09:32;;;;;;;4.07;2.53;;;31.80;35.50;;;;;;5085853;28;27475;-67
2021/06/15 15:12:27;;;;;;;2.58;2.10;;;31.80;34.10;;;;;;5086522;28;27506;-68
2021/06/15 15:15:24;;;;;;;9.32;2.75;;;31.70;35.00;;;;;;5072671;28;27491;-67
2021/06/15 15:22:15;;;;;;;3.10;2.03;;;31.70;35.50;;;;;;5084833;28;27676;-72
2021/06/15 15:25:22;;;;;;;2.15;1.90;;;31.60;35.70;;;;;;5085311;28;27473;-74
2021/06/15 15:28:20;;;;;;;4.78;2.05;;;31.50;36.10;;;;;;5069787;28;27452;-68
2021/06/15 15:31:17;;;;;;;3.20;2.20;;;31.50;34.90;;;;;;5072992;28;27404;-68
2021/06/15 15:34:57;;;;;;;3.20;2.15;;;31.40;35.40;;;;;;5085614;28;27435;-67
2021/06/15 15:37:54;;;;;;;2.17;1.75;;;31.40;36.20;;;;;;5096074;28;27960;-66
2021/06/15 15:40:59;;;;;;;3.67;2.20;;;31.40;34.30;;;;;;5085276;28;27591;-72
2021/06/15 15:43:58;;;;;;;3.20;1.88;;;31.30;35.70;;;;;;5084700;28;27721;-67
2021/06/15 15:46:57;;;;;;;2.85;1.98;;;31.30;37.00;;;;;;5072574;28;27388;-67
2021/06/15 15:49:50;;;;;;;5.07;2.25;;;31.30;34.80;;;;;;5058084;28;27904;-68
2021/06/15 15:52:51;;;;;;;6.75;2.03;;;31.30;36.60;;;;;;5081953;28;27524;-67
2021/06/15 15:55:51;;;;;;;4.60;1.90;;;31.20;34.10;;;;;;5071714;28;27504;-67
2021/06/15 15:59:06;;;;;;;7.00;2.35;;;31.20;34.80;;;;;;5086133;28;27428;-67
2021/06/15 16:02:15;;;;;;;5.82;1.80;;;31.20;35.90;;;;;;5085623;28;27889;-67
2021/06/15 16:05:15;;;;;;;5.38;2.22;;;31.10;34.70;;;;;;5085027;28;27501;-67